• Join FlightAware (Why Join?)
  • Login
  • US Flag 
12:44AM EDT


 

Airport Tracker/Info


-or-


 

Live Flight TrackerFlight Track Log ✈ DAL2033 ✈ 17-May-2013 ✈ KATL - KALB

Flight Track Log - Related Links

Times and Time Zones

All times are in EDT time to prevent confusion due to time zone crossing. See the DAL2033 flight status page for this flight to view local times or setup timezone preferences in your user account.

Time Position Orientation Groundspeed Altitude Reporting Facility
EDT Latitude Longitude Course Direction KTS MPH feet Rate Location/Type
03:05PM 33.6494 -84.4781 North 447 514 2,500  Level Atlanta Center
03:06PM 33.6833 -84.5667 295° West 267 307 4,800 2,400 Climbing Atlanta TRACON
03:07PM 33.8399 -84.1733 320° Northwest  Level FlightAware Approximate
03:07PM 33.7667 -84.5833 351° North 300 345 7,600  Level Atlanta TRACON
03:08PM 33.9361 -84.2667 North  Level FlightAware Approximate
03:09PM 34.0603 -84.2667 North  Level FlightAware Approximate
03:09PM 33.9103 -84.5144 22° Northeast 324 373 11,000  Level Atlanta Center
03:10PM 34.1845 -84.2667 North  Level FlightAware Approximate
03:10PM 34.0044 -84.4522 29° Northeast 367 422 12,800  Level Atlanta Center
03:11PM 34.1069 -84.3900 27° Northeast 392 451 14,900 2,220 Climbing Atlanta Center
03:12PM 34.2133 -84.3278 26° Northeast 412 474 17,300 2,040 Climbing Atlanta Center
03:13PM 34.3283 -84.2728 22° Northeast 432 497 19,000 1,620 Climbing Atlanta Center
03:14PM 34.4642 -84.2378 12° North 443 510 20,600 1,620 Climbing Atlanta Center
03:15PM 34.5894 -84.2103 10° North 453 521 22,300 1,560 Climbing Atlanta Center
03:16PM 34.7167 -84.1828 10° North 460 529 23,800 1,620 Climbing Atlanta Center
03:17PM 34.8481 -84.1500 12° North 467 537 25,600 1,560 Climbing Atlanta Center
03:18PM 34.9756 -84.1200 11° North 467 537 27,000 1,440 Climbing Atlanta Center
03:19PM 35.1047 -84.0922 10° North 467 537 28,500 1,500 Climbing Atlanta Center
03:20PM 35.2300 -84.0592 12° North 467 537 30,000 1,260 Climbing Atlanta Center
03:21PM 35.3572 -84.0286 11° North 467 537 31,100 960 Climbing Atlanta Center
03:22PM 35.4847 -83.9981 11° North 467 537 32,000 900 Climbing Atlanta Center
03:23PM 35.6078 -83.9672 12° North 462 532 33,000 480 Climbing Atlanta Center
03:24PM 35.7308 -83.9364 11° North 456 525 33,000  Level Atlanta Center
03:25PM 35.8558 -83.9056 11° North 451 519 33,000  Level Atlanta Center
03:26PM 35.9725 -83.8514 21° North 446 513 33,000  Level Atlanta Center
03:27PM 36.0850 -83.7792 27° Northeast 451 519 33,000  Level Atlanta Center
03:28PM 36.1975 -83.7094 27° Northeast 446 513 33,000  Level Atlanta Center
03:29PM 36.3017 -83.6444 27° Northeast 446 513 33,000  Level Atlanta Center
03:30PM 36.4119 -83.5744 27° Northeast 451 519 33,000  Level Atlanta Center
03:31PM 36.4667 -83.5347 30° Northeast 455 524 33,000  Level Indianapolis Center
03:32PM 36.6011 -83.4503 27° Northeast 461 531 33,000  Level Indianapolis Center
03:33PM 36.7061 -83.3606 34° Northeast 460 529 33,000  Level Indianapolis Center
03:34PM 36.8083 -83.2644 37° Northeast 458 527 33,000  Level Indianapolis Center
03:35PM 36.9114 -83.1697 36° Northeast 456 525 33,000  Level Indianapolis Center
03:36PM 37.0158 -83.0728 37° Northeast 459 528 33,000  Level Indianapolis Center
03:37PM 37.1211 -82.9731 37° Northeast 464 534 33,000  Level Indianapolis Center
03:38PM 37.2422 -82.8569 37° Northeast 464 534 33,000  Level Indianapolis Center
03:39PM 37.3467 -82.7581 37° Northeast 468 539 33,000  Level Indianapolis Center
03:40PM 37.4503 -82.6592 37° Northeast 465 535 33,000  Level Indianapolis Center
03:41PM 37.5531 -82.5600 37° Northeast 462 532 33,000  Level Indianapolis Center
03:42PM 37.6564 -82.4594 38° Northeast 466 536 33,000  Level Indianapolis Center
03:43PM 37.7600 -82.3578 38° Northeast 470 541 33,000  Level Indianapolis Center
03:44PM 37.8797 -82.2419 37° Northeast 464 534 33,000  Level Indianapolis Center
03:45PM 37.9719 -82.1494 38° Northeast 464 534 33,000  Level Indianapolis Center
03:46PM 38.0750 -82.0483 38° Northeast 467 537 33,000  Level Indianapolis Center
03:47PM 38.1767 -81.9458 38° Northeast 467 537 33,000  Level Indianapolis Center
03:48PM 38.2986 -81.8231 38° Northeast 466 536 33,000  Level Indianapolis Center
03:49PM 38.3939 -81.7122 42° Northeast 465 535 33,000  Level Indianapolis Center
03:50PM 38.4792 -81.5883 49° Northeast 466 536 33,000  Level Indianapolis Center
03:51PM 38.5639 -81.4664 48° Northeast 467 537 33,000  Level Indianapolis Center
03:52PM 38.6653 -81.3228 48° Northeast 461 531 33,000  Level Indianapolis Center
03:53PM 38.7492 -81.2028 48° Northeast 457 526 33,000  Level Indianapolis Center
03:54PM 38.8333 -81.0794 49° Northeast 461 531 33,000  Level Indianapolis Center
03:55PM 38.9183 -80.9578 48° Northeast 462 532 33,000  Level Indianapolis Center
03:56PM 39.0025 -80.8350 49° Northeast 459 528 33,000  Level Indianapolis Center
03:57PM 39.0869 -80.7161 48° Northeast 453 521 33,000  Level Indianapolis Center
03:59PM 39.1889 -80.5728 47° Northeast 452 520 33,000  Level Indianapolis Center
04:00PM 39.2739 -80.4519 48° Northeast 455 524 33,000  Level Indianapolis Center
04:01PM 39.3578 -80.3336 47° Northeast 448 516 33,000  Level Indianapolis Center
04:01PM 39.4225 -80.2472 46° Northeast 450 518 33,000  Level Cleveland Center
04:02PM 39.5075 -80.1256 48° Northeast 450 518 33,000  Level Cleveland Center
04:03PM 39.5925 -80.0039 48° Northeast 450 518 33,000  Level Cleveland Center
04:04PM 39.6753 -79.8819 49° Northeast 450 518 33,000  Level Cleveland Center
04:05PM 39.7556 -79.7594 50° Northeast 450 518 33,000  Level Cleveland Center
04:06PM 39.8422 -79.6367 47° Northeast 450 518 33,000  Level Cleveland Center
04:07PM 39.9244 -79.5111 49° Northeast 450 518 33,000  Level Cleveland Center
04:08PM 40.0067 -79.3906 48° Northeast 450 518 33,000  Level Cleveland Center
04:09PM 40.0783 -79.2781 50° Northeast 445 512 33,000  Level Cleveland Center
04:10PM 40.1603 -79.1514 50° Northeast 445 512 33,000  Level Cleveland Center
04:11PM 40.2422 -79.0272 49° Northeast 445 512 33,000  Level Cleveland Center
04:12PM 40.3236 -78.9028 49° Northeast 445 512 33,000  Level Cleveland Center
04:13PM 40.4072 -78.7753 49° Northeast 445 512 33,000  Level Cleveland Center
04:14PM 40.4928 -78.6500 48° Northeast 445 512 33,000  Level Cleveland Center
04:17PM 40.6894 -78.3503 49° Northeast 466 536 33,000  Level New York Center
04:18PM 40.7706 -78.2222 50° Northeast 466 536 33,000  Level New York Center
04:19PM 40.8539 -78.0911 50° Northeast 461 531 33,000  Level New York Center
04:20PM 40.9456 -77.9528 49° Northeast 461 531 33,000  Level New York Center
04:21PM 41.0303 -77.8294 48° Northeast 456 525 33,000  Level New York Center
04:22PM 41.1144 -77.7089 47° Northeast 456 525 33,000 -900 Level New York Center
04:23PM 41.1986 -77.5850 48° Northeast 451 519 31,300 -1,980 Descending New York Center
04:24PM 41.2850 -77.4583 48° Northeast 451 519 29,200 -1,200 Descending New York Center
04:25PM 41.3622 -77.3444 48° Northeast 456 525 29,000 -120 Descending New York Center
04:26PM 41.4483 -77.2172 48° Northeast 461 531 29,000  Level New York Center
04:27PM 41.5347 -77.0842 49° Northeast 461 531 29,000  Level New York Center
04:28PM 41.6319 -76.9378 48° Northeast 467 537 29,000  Level New York Center
04:29PM 41.7217 -76.8128 46° Northeast 467 537 29,000 -1,140 Level New York Center
04:30PM 41.8283 -76.7250 32° Northeast 451 519 26,800 -2,340 Descending New York Center
04:31PM 41.9267 -76.6306 36° Northeast 446 513 24,400 -1,080 Descending New York Center
04:32PM 42.0392 -76.4072 56° Northeast 445 512 24,000 -180 Descending Boston Center
04:33PM 42.1028 -76.2572 60° Northeast 450 518 24,000  Level Boston Center
04:34PM 42.1639 -76.1097 61° Northeast 450 518 24,000  Level Boston Center
04:35PM 42.2231 -75.9533 63° Northeast 455 524 24,000 -240 Level Boston Center
04:36PM 42.2758 -75.7933 66° East 455 524 23,600 -1,080 Descending Boston Center
04:37PM 42.3367 -75.6311 63° Northeast 447 514 21,900 -1,860 Descending Boston Center
04:38PM 42.3867 -75.4844 65° Northeast 440 506 19,900 -1,860 Descending Boston Center
04:39PM 42.4128 -75.3592 74° East 430 495 18,200 -1,980 Descending Boston Center
04:40PM 42.4547 -75.1811 72° East 410 472 16,000 -2,280 Descending Boston Center
04:41PM 42.4892 -75.0503 70° East 398 458 13,700 -2,280 Descending Boston Center
04:42PM 42.5256 -74.9164 70° East 385 443 11,500 -1,440 Descending Boston Center
04:43PM 42.5531 -74.7992 72° East 365 420 11,000 -420 Descending Boston Center
04:44PM 42.5689 -74.7433 69° East 363 418 11,000 60 Level Boston Center
04:44PM 42.5917 -74.6483 72° East 374 430 11,100  Climbing Boston Center
04:45PM 42.6028 -74.6119 67° East 366 421 11,000 -120 Descending Boston Center
04:45PM 42.6231 -74.5253 72° East 362 417 11,000 -240 Level Boston Center
04:46PM 42.6322 -74.4861 72° East 345 397 10,800 -840 Descending Boston Center
04:46PM 42.6253 -74.4042 97° East 324 373 10,200 -1,080 Descending Boston Center
04:47PM 42.6217 -74.3589 96° East 306 352 9,600 -1,440 Descending Boston Center
04:47PM 42.6125 -74.2908 100° East 312 359 8,800 -1,380 Descending Boston Center
04:48PM 42.6069 -74.2397 98° East 297 342 8,200 -1,500 Descending Boston Center
04:49PM 42.5942 -74.1381 100° East 279 321 6,600 -1,620 Descending Boston Center
04:49PM 42.5867 -74.0786 100° East 285 328 5,800 -1,500 Descending Boston Center
04:50PM 42.5811 -74.0333 99° East 278 320 5,100 -1,200 Descending Boston Center
04:50PM 42.5756 -73.9794 98° East 268 308 4,600 -840 Descending Boston Center
04:51PM 42.5697 -73.9428 102° East 237 273 4,300 -600 Descending Boston Center